createdAt,value
2023-05-24T00:02:00.247Z,3.20
2023-05-24T00:04:30.459Z,3.58
2023-05-24T00:06:58.186Z,2.67
2023-05-24T00:09:25.369Z,3.13
2023-05-24T00:11:51.880Z,2.10
2023-05-24T00:14:18.460Z,2.43
2023-05-24T00:16:46.481Z,3.45
2023-05-24T00:19:18.475Z,2.80
2023-05-24T00:21:46.070Z,2.42
2023-05-24T00:24:12.724Z,3.00
2023-05-24T00:26:39.565Z,2.20
2023-05-24T00:29:06.533Z,2.38
2023-05-24T00:31:33.154Z,2.28
2023-05-24T00:33:59.665Z,2.83
2023-05-24T00:36:26.482Z,2.80
2023-05-24T00:38:53.706Z,2.00
2023-05-24T00:41:20.346Z,2.05
2023-05-24T00:43:47.033Z,2.20
2023-05-24T00:46:28.047Z,2.42
2023-05-24T00:48:54.900Z,2.63
2023-05-24T00:51:21.692Z,2.97
2023-05-24T00:53:49.012Z,2.60
2023-05-24T00:56:16.795Z,2.65
2023-05-24T00:58:44.150Z,2.30
2023-05-24T01:01:10.766Z,2.00
2023-05-24T01:03:38.167Z,2.25
2023-05-24T01:06:07.293Z,2.40
2023-05-24T01:08:35.001Z,2.30
2023-05-24T01:11:06.622Z,2.30
2023-05-24T01:13:39.615Z,2.17
2023-05-24T01:16:12.751Z,2.25
2023-05-24T01:18:41.684Z,2.78
2023-05-24T01:21:39.297Z,2.30
2023-05-24T01:24:30.312Z,2.58
2023-05-24T01:27:07.375Z,2.85
2023-05-24T01:29:35.557Z,2.30
2023-05-24T01:32:02.971Z,3.17
2023-05-24T01:34:30.367Z,2.40
2023-05-24T01:36:57.149Z,2.35
2023-05-24T01:39:29.936Z,2.30
2023-05-24T01:42:12.657Z,2.03
2023-05-24T01:45:10.127Z,1.75
2023-05-24T01:48:08.264Z,1.93
2023-05-24T01:50:38.856Z,1.80
2023-05-24T01:53:09.711Z,1.70
2023-05-24T01:55:37.541Z,2.10
2023-05-24T01:58:05.518Z,2.63
2023-05-24T02:00:33.096Z,2.50
2023-05-24T02:03:02.356Z,1.60
2023-05-24T02:05:29.101Z,2.60
2023-05-24T02:07:56.199Z,1.85
2023-05-24T02:10:23.640Z,1.98
2023-05-24T02:12:50.455Z,2.20
2023-05-24T02:15:17.247Z,3.27
2023-05-24T02:17:46.106Z,1.80
2023-05-24T02:20:13.547Z,1.80
2023-05-24T02:22:40.677Z,2.00
2023-05-24T02:25:08.047Z,1.80
2023-05-24T02:27:35.010Z,2.73
2023-05-24T02:30:01.544Z,1.93
2023-05-24T02:32:28.173Z,1.77
2023-05-24T02:34:54.733Z,1.60
2023-05-24T02:37:21.409Z,2.20
2023-05-24T02:39:48.021Z,1.87
2023-05-24T02:42:14.765Z,2.05
2023-05-24T02:44:42.827Z,1.60
2023-05-24T02:47:09.366Z,1.85
2023-05-24T02:49:35.986Z,1.77
2023-05-24T02:52:02.742Z,1.80
2023-05-24T02:54:29.212Z,2.03
2023-05-24T02:56:56.689Z,1.60
2023-05-24T02:59:23.879Z,2.30
2023-05-24T03:01:50.797Z,1.70
2023-05-24T03:04:17.554Z,1.73
2023-05-24T03:06:44.617Z,1.83
2023-05-24T03:09:11.152Z,1.60
2023-05-24T03:11:37.584Z,2.00
2023-05-24T03:14:06.396Z,2.03
2023-05-24T03:16:33.135Z,1.50
2023-05-24T03:19:00.352Z,1.97
2023-05-24T03:21:27.381Z,1.70
2023-05-24T03:23:54.038Z,1.67
2023-05-24T03:26:20.755Z,1.73
2023-05-24T03:28:47.705Z,2.23
2023-05-24T03:31:14.397Z,2.08
2023-05-24T03:33:41.114Z,2.07
2023-05-24T03:36:07.802Z,2.23
2023-05-24T03:38:34.422Z,2.00
2023-05-24T03:41:00.966Z,2.10
2023-05-24T03:43:27.487Z,2.58
2023-05-24T03:45:54.090Z,1.90
2023-05-24T03:48:21.005Z,1.83
2023-05-24T03:50:47.888Z,1.70
2023-05-24T03:53:15.407Z,1.88
2023-05-24T03:55:41.911Z,2.17
2023-05-24T03:58:08.463Z,1.80
2023-05-24T04:00:35.117Z,2.03
2023-05-24T04:03:01.871Z,1.98
2023-05-24T04:05:29.998Z,1.83
2023-05-24T04:07:56.650Z,2.17
2023-05-24T04:10:23.355Z,1.67
2023-05-24T04:12:49.968Z,2.40
2023-05-24T04:15:16.746Z,2.07
2023-05-24T04:17:45.205Z,1.85
2023-05-24T04:20:12.237Z,2.08
2023-05-24T04:22:39.196Z,1.80
2023-05-24T04:25:06.725Z,2.30
2023-05-24T04:27:33.369Z,1.40
2023-05-24T04:30:00.396Z,1.88
2023-05-24T04:32:30.302Z,1.40
2023-05-24T04:34:57.136Z,1.67
2023-05-24T04:37:24.745Z,1.60
2023-05-24T04:39:51.762Z,1.73
2023-05-24T04:42:18.458Z,2.00
2023-05-24T04:44:45.116Z,2.00
2023-05-24T04:47:12.850Z,2.22
2023-05-24T04:49:39.679Z,1.63
2023-05-24T04:52:07.334Z,1.90
2023-05-24T04:54:34.105Z,1.60
2023-05-24T04:57:01.185Z,1.83
2023-05-24T04:59:27.840Z,2.03
2023-05-24T05:01:54.469Z,1.70
2023-05-24T05:04:20.934Z,2.28
2023-05-24T05:06:48.269Z,1.60
2023-05-24T05:09:15.954Z,2.22
2023-05-24T05:11:42.783Z,1.88
2023-05-24T05:14:09.765Z,1.92
2023-05-24T05:16:36.940Z,1.15
2023-05-24T05:19:07.374Z,1.98
2023-05-24T05:21:34.628Z,1.92
2023-05-24T05:24:02.272Z,1.67
2023-05-24T05:26:29.023Z,1.90
2023-05-24T05:28:56.624Z,1.90
2023-05-24T05:31:24.735Z,1.67
2023-05-24T05:33:51.411Z,1.90
2023-05-24T05:36:18.078Z,1.73
2023-05-24T05:38:44.623Z,2.15
2023-05-24T05:41:11.408Z,2.55
2023-05-24T05:43:38.972Z,1.52
2023-05-24T05:46:06.227Z,1.80
2023-05-24T05:48:32.710Z,2.30
2023-05-24T05:50:59.334Z,1.55
2023-05-24T05:53:25.950Z,1.70
2023-05-24T05:55:52.458Z,1.65
2023-05-24T05:58:18.942Z,1.98
2023-05-24T06:00:45.612Z,1.60
2023-05-24T06:03:12.316Z,1.90
2023-05-24T06:05:38.890Z,1.77
2023-05-24T06:08:05.613Z,1.98
2023-05-24T06:10:32.215Z,2.15
2023-05-24T06:12:58.671Z,1.98
2023-05-24T06:15:25.170Z,1.90
2023-05-24T06:17:52.698Z,1.80
2023-05-24T06:20:19.516Z,1.85
2023-05-24T06:22:46.393Z,1.70
2023-05-24T06:25:19.849Z,1.80
2023-05-24T06:27:46.780Z,1.65
2023-05-24T06:30:13.899Z,1.85
2023-05-24T06:32:40.767Z,2.08
2023-05-24T06:35:08.075Z,2.10
2023-05-24T06:37:34.883Z,1.63
2023-05-24T06:40:02.044Z,1.67
2023-05-24T06:42:28.674Z,1.63
2023-05-24T06:44:55.226Z,2.15
2023-05-24T06:47:22.376Z,2.22
2023-05-24T06:49:49.931Z,2.03
2023-05-24T06:52:16.875Z,1.92
2023-05-24T06:54:43.471Z,1.65
2023-05-24T06:57:10.072Z,1.58
2023-05-24T06:59:36.501Z,2.05
2023-05-24T07:02:04.193Z,1.92
2023-05-24T07:04:31.605Z,1.70
2023-05-24T07:06:58.545Z,2.00
2023-05-24T07:09:25.167Z,1.45
2023-05-24T07:11:52.201Z,1.98
2023-05-24T07:14:18.632Z,1.50
2023-05-24T07:16:45.093Z,2.30
2023-05-24T07:19:13.526Z,2.00
2023-05-24T07:21:40.075Z,2.05
2023-05-24T07:24:07.038Z,1.70
2023-05-24T07:26:33.628Z,1.80
2023-05-24T07:29:00.347Z,2.10
2023-05-24T07:31:27.695Z,2.15
2023-05-24T07:33:54.125Z,1.80
2023-05-24T07:36:21.447Z,2.78
2023-05-24T07:38:47.917Z,1.85
2023-05-24T07:41:14.368Z,1.90
2023-05-24T07:43:40.877Z,2.33
2023-05-24T07:46:07.543Z,1.90
2023-05-24T07:48:34.056Z,2.03
2023-05-24T07:51:00.839Z,2.75
2023-05-24T07:53:27.396Z,2.63
2023-05-24T07:55:53.944Z,3.05
2023-05-24T07:58:20.589Z,2.72
2023-05-24T08:00:47.465Z,2.33
2023-05-24T08:03:15.605Z,2.95
2023-05-24T08:05:42.355Z,2.22
2023-05-24T08:08:09.605Z,2.50
2023-05-24T08:10:36.665Z,2.10
2023-05-24T08:13:03.418Z,2.13
2023-05-24T08:15:30.051Z,2.90
2023-05-24T08:17:56.886Z,1.80
2023-05-24T08:20:23.669Z,1.92
2023-05-24T08:22:50.406Z,2.08
2023-05-24T08:25:17.700Z,2.03
2023-05-24T08:27:44.235Z,3.15
2023-05-24T08:30:11.396Z,2.78
2023-05-24T08:32:38.457Z,2.08
2023-05-24T08:35:19.156Z,2.28
2023-05-24T08:37:47.942Z,2.03
2023-05-24T08:40:14.589Z,2.03
2023-05-24T08:42:41.396Z,2.28
2023-05-24T08:45:12.926Z,2.13
2023-05-24T08:47:40.153Z,2.35
2023-05-24T08:50:08.269Z,2.70
2023-05-24T08:52:35.635Z,2.63
2023-05-24T08:55:04.808Z,2.22
2023-05-24T08:57:35.064Z,1.83
2023-05-24T09:00:01.998Z,1.88
2023-05-24T09:02:29.052Z,2.30
2023-05-24T09:04:56.009Z,2.03
2023-05-24T09:07:24.233Z,2.15
2023-05-24T09:09:59.085Z,2.60
2023-05-24T09:12:36.509Z,2.25
2023-05-24T09:15:05.437Z,2.10
2023-05-24T09:17:33.750Z,2.47
2023-05-24T09:20:00.884Z,2.58
2023-05-24T09:22:28.892Z,2.65
2023-05-24T09:25:00.766Z,2.20
2023-05-24T09:27:27.800Z,2.03
2023-05-24T09:29:55.599Z,1.95
2023-05-24T09:32:24.501Z,2.70
2023-05-24T09:34:53.559Z,2.10
2023-05-24T09:37:25.708Z,2.70
2023-05-24T09:39:56.123Z,2.38
2023-05-24T09:42:26.422Z,1.83
2023-05-24T09:45:09.817Z,2.28
2023-05-24T09:47:37.480Z,2.78
2023-05-24T09:50:05.593Z,2.95
2023-05-24T09:52:36.684Z,2.20
2023-05-24T09:55:15.961Z,2.20
2023-05-24T09:58:02.982Z,4.93
2023-05-24T10:00:30.976Z,2.30
2023-05-24T10:03:06.790Z,3.65
2023-05-24T10:05:34.190Z,2.20
2023-05-24T10:08:01.474Z,3.10
2023-05-24T10:10:33.837Z,2.97
2023-05-24T10:13:01.603Z,2.33
2023-05-24T10:15:28.964Z,2.22
2023-05-24T10:17:56.964Z,2.03
2023-05-24T10:20:24.648Z,2.92
2023-05-24T10:23:01.633Z,2.40
2023-05-24T10:25:29.909Z,3.15
2023-05-24T10:28:06.080Z,2.40
2023-05-24T10:30:48.019Z,2.72
2023-05-24T10:33:15.374Z,2.47
2023-05-24T10:35:43.103Z,2.25
2023-05-24T10:38:09.673Z,2.95
2023-05-24T10:40:41.466Z,2.30
2023-05-24T10:43:08.216Z,2.10
2023-05-24T10:45:38.645Z,2.17
2023-05-24T10:48:15.533Z,2.22
2023-05-24T10:50:43.074Z,2.90
2023-05-24T10:53:22.279Z,2.00
2023-05-24T10:55:57.259Z,2.60
2023-05-24T10:58:30.564Z,2.05
2023-05-24T11:00:57.195Z,2.63
2023-05-24T11:03:24.725Z,2.42
2023-05-24T11:05:53.514Z,1.90
2023-05-24T11:08:31.818Z,1.92
2023-05-24T11:13:41.486Z,2.28
2023-05-24T11:16:08.109Z,2.30
2023-05-24T11:18:39.969Z,2.17
2023-05-24T11:21:06.690Z,2.25
2023-05-24T11:23:34.414Z,2.47
2023-05-24T11:26:03.559Z,2.28
2023-05-24T11:28:30.322Z,2.38
2023-05-24T11:30:57.390Z,2.60
2023-05-24T11:33:24.528Z,2.30
2023-05-24T11:35:52.162Z,2.58
2023-05-24T11:38:23.518Z,2.28
2023-05-24T11:40:51.452Z,2.40
2023-05-24T11:43:19.871Z,2.80
2023-05-24T11:45:49.201Z,2.38
2023-05-24T11:48:16.851Z,2.63
2023-05-24T11:50:49.769Z,2.22
2023-05-24T11:53:23.162Z,2.00
2023-05-24T11:55:49.762Z,2.45
2023-05-24T11:58:23.333Z,2.42
2023-05-24T12:00:51.006Z,2.30
2023-05-24T12:03:17.694Z,2.70
2023-05-24T12:05:44.701Z,3.20
2023-05-24T12:08:18.285Z,2.75
2023-05-24T12:10:45.036Z,2.40
2023-05-24T12:13:25.426Z,2.58
2023-05-24T12:15:56.147Z,2.92
2023-05-24T12:18:24.203Z,2.50
2023-05-24T12:20:51.011Z,2.78
2023-05-24T12:23:23.607Z,2.67
2023-05-24T12:25:51.107Z,2.35
2023-05-24T12:28:21.798Z,3.08
2023-05-24T12:30:49.937Z,2.85
2023-05-24T12:33:19.123Z,3.28
2023-05-24T12:35:46.695Z,2.55
2023-05-24T12:38:13.228Z,2.58
2023-05-24T12:40:42.694Z,2.70
2023-05-24T12:43:10.626Z,2.60
2023-05-24T12:45:37.324Z,2.45
2023-05-24T12:48:05.039Z,2.67
2023-05-24T12:50:31.851Z,2.65
2023-05-24T12:52:58.309Z,2.47
2023-05-24T12:55:26.588Z,2.80
2023-05-24T12:57:54.731Z,2.80
2023-05-24T13:00:23.929Z,2.53
2023-05-24T13:02:53.079Z,2.85
2023-05-24T13:05:19.926Z,2.60
2023-05-24T13:07:46.602Z,2.25
2023-05-24T13:10:13.486Z,2.50
2023-05-24T13:12:41.801Z,2.70
2023-05-24T13:15:09.010Z,3.08
2023-05-24T13:17:36.184Z,2.30
2023-05-24T13:20:06.674Z,2.33
2023-05-24T13:22:34.577Z,2.60
2023-05-24T13:25:02.733Z,2.40
2023-05-24T13:27:29.644Z,2.50
2023-05-24T13:32:25.473Z,2.50
2023-05-24T13:34:52.406Z,2.17
2023-05-24T13:37:19.508Z,2.70
2023-05-24T13:39:46.179Z,2.20
2023-05-24T13:42:14.653Z,2.63
2023-05-24T13:44:41.169Z,2.60
2023-05-24T13:47:08.505Z,2.30
2023-05-24T13:49:35.107Z,2.63
2023-05-24T13:52:02.430Z,2.35
2023-05-24T13:54:28.869Z,2.95
2023-05-24T13:56:57.468Z,2.30
2023-05-24T13:59:24.668Z,2.45
2023-05-24T14:01:51.335Z,2.13
2023-05-24T14:04:18.000Z,2.60
2023-05-24T14:06:44.513Z,2.40
2023-05-24T14:09:10.988Z,2.55
2023-05-24T14:11:37.556Z,2.65
2023-05-24T14:16:34.585Z,2.40
2023-05-24T14:19:01.436Z,2.30
2023-05-24T14:21:28.051Z,2.95
2023-05-24T14:23:54.532Z,2.33
2023-05-24T14:26:23.612Z,2.72
2023-05-24T14:28:52.237Z,2.63
2023-05-24T14:31:20.319Z,3.28
2023-05-24T14:33:47.472Z,2.40
2023-05-24T14:36:14.064Z,2.30
2023-05-24T14:38:40.982Z,2.75
2023-05-24T14:41:09.274Z,2.58
2023-05-24T14:43:37.601Z,2.30
2023-05-24T14:46:04.306Z,2.00
2023-05-24T14:48:30.800Z,2.35
2023-05-24T14:50:57.355Z,2.97
2023-05-24T14:53:23.853Z,2.50
2023-05-24T14:55:50.392Z,2.70
2023-05-24T14:58:16.946Z,2.40
2023-05-24T15:00:44.336Z,2.47
2023-05-24T15:03:12.802Z,2.33
2023-05-24T15:05:39.950Z,2.47
2023-05-24T15:08:07.880Z,2.63
2023-05-24T15:10:34.637Z,2.50
2023-05-24T15:13:01.671Z,2.58
2023-05-24T15:15:28.518Z,2.30
2023-05-24T15:17:55.106Z,2.30
2023-05-24T15:20:21.818Z,2.47
2023-05-24T15:22:48.552Z,2.10
2023-05-24T15:25:15.168Z,2.10
2023-05-24T15:27:41.739Z,2.30
2023-05-24T15:30:08.537Z,1.88
2023-05-24T15:32:35.908Z,2.72
2023-05-24T15:35:02.450Z,2.13
2023-05-24T15:37:29.618Z,2.50
2023-05-24T15:39:56.320Z,2.45
2023-05-24T15:42:24.710Z,2.90
2023-05-24T15:44:51.701Z,2.45
2023-05-24T15:47:21.187Z,2.67
2023-05-24T15:49:49.691Z,2.50
2023-05-24T15:52:17.076Z,2.30
2023-05-24T15:54:44.397Z,2.65
2023-05-24T15:57:10.962Z,2.33
2023-05-24T15:59:38.646Z,2.45
2023-05-24T16:02:08.574Z,2.28
2023-05-24T16:04:35.123Z,2.65
2023-05-24T16:07:01.665Z,2.00
2023-05-24T16:09:28.203Z,2.33
2023-05-24T16:11:54.809Z,2.30
2023-05-24T16:14:21.498Z,2.85
2023-05-24T16:16:48.008Z,1.95
2023-05-24T16:19:14.535Z,1.90
2023-05-24T16:21:41.451Z,2.65
2023-05-24T16:24:07.955Z,2.67
2023-05-24T16:26:34.540Z,1.95
2023-05-24T16:29:01.781Z,2.10
2023-05-24T16:31:30.080Z,2.60
2023-05-24T16:33:58.743Z,1.90
2023-05-24T16:36:26.843Z,1.92
2023-05-24T16:38:53.601Z,2.40
2023-05-24T16:41:20.332Z,2.60
2023-05-24T16:43:47.291Z,2.05
2023-05-24T16:46:13.946Z,1.98
2023-05-24T16:48:40.589Z,1.92
2023-05-24T16:51:07.680Z,1.92
2023-05-24T16:53:34.124Z,1.83
2023-05-24T16:56:00.682Z,1.92
2023-05-24T16:58:28.131Z,2.28
2023-05-24T17:00:55.355Z,2.03
2023-05-24T17:03:27.555Z,2.25
2023-05-24T17:05:55.398Z,1.92
2023-05-24T17:08:22.400Z,2.20
2023-05-24T17:10:55.689Z,2.00
2023-05-24T17:13:23.312Z,2.03
2023-05-24T17:15:53.728Z,2.20
2023-05-24T17:18:27.588Z,2.00
2023-05-24T17:20:58.654Z,2.03
2023-05-24T17:23:26.234Z,1.65
2023-05-24T17:25:53.574Z,1.90
2023-05-24T17:28:20.041Z,2.05
2023-05-24T17:30:47.298Z,2.00
2023-05-24T17:33:13.796Z,1.95
2023-05-24T17:35:41.745Z,1.80
2023-05-24T17:38:10.019Z,2.00
2023-05-24T17:40:36.509Z,2.55
2023-05-24T17:43:03.067Z,2.40
2023-05-24T17:45:29.768Z,2.10
2023-05-24T17:47:56.462Z,1.90
2023-05-24T17:50:23.408Z,2.13
2023-05-24T17:52:49.982Z,1.83
2023-05-24T17:55:16.703Z,1.80
2023-05-24T17:57:43.835Z,2.08
2023-05-24T18:00:11.852Z,2.38
2023-05-24T18:02:38.584Z,2.28
2023-05-24T18:05:05.482Z,1.95
2023-05-24T18:07:31.956Z,2.35
2023-05-24T18:10:00.397Z,1.90
2023-05-24T18:12:27.155Z,2.08
2023-05-24T18:14:53.707Z,2.15
2023-05-24T18:17:20.337Z,1.98
2023-05-24T18:19:46.988Z,2.30
2023-05-24T18:22:13.573Z,2.08
2023-05-24T18:24:40.051Z,2.35
2023-05-24T18:27:06.516Z,2.30
2023-05-24T18:29:33.110Z,2.45
2023-05-24T18:31:59.999Z,2.03
2023-05-24T18:34:26.855Z,2.40
2023-05-24T18:36:54.764Z,2.13
2023-05-24T18:39:21.475Z,2.33
2023-05-24T18:41:48.032Z,2.47
2023-05-24T18:44:14.917Z,2.33
2023-05-24T18:46:41.494Z,2.55
2023-05-24T18:49:10.916Z,2.53
2023-05-24T18:51:37.991Z,2.17
2023-05-24T18:54:04.710Z,2.33
2023-05-24T18:56:31.191Z,2.22
2023-05-24T18:58:59.646Z,2.58
2023-05-24T19:01:28.221Z,2.83
2023-05-24T19:03:54.972Z,2.60
2023-05-24T19:06:21.562Z,2.72
2023-05-24T19:08:48.035Z,2.35
2023-05-24T19:11:14.715Z,3.15
2023-05-24T19:13:41.529Z,2.75
2023-05-24T19:16:08.024Z,2.88
2023-05-24T19:18:34.525Z,3.17
2023-05-24T19:21:01.102Z,2.55
2023-05-24T19:23:27.688Z,2.75
2023-05-24T19:25:54.138Z,3.15
2023-05-24T19:28:20.669Z,2.53
2023-05-24T19:30:47.633Z,2.85
2023-05-24T19:33:14.320Z,3.00
2023-05-24T19:35:41.041Z,2.65
2023-05-24T19:38:08.196Z,3.22
2023-05-24T19:40:34.760Z,2.50
2023-05-24T19:43:01.459Z,2.60
2023-05-24T19:45:27.965Z,2.97
2023-05-24T19:47:54.522Z,3.08
2023-05-24T19:50:21.142Z,3.05
2023-05-24T19:52:47.600Z,2.90
2023-05-24T19:55:14.414Z,3.28
2023-05-24T19:57:40.914Z,3.00
2023-05-24T20:00:07.849Z,3.25
2023-05-24T20:02:36.597Z,2.83
2023-05-24T20:05:04.387Z,3.40
2023-05-24T20:07:31.590Z,3.10
2023-05-24T20:09:58.085Z,2.72
2023-05-24T20:12:25.017Z,2.85
2023-05-24T20:14:52.328Z,2.60
2023-05-24T20:17:18.780Z,2.90
2023-05-24T20:19:45.478Z,2.85
2023-05-24T20:22:12.533Z,3.10
2023-05-24T20:24:39.030Z,3.10
2023-05-24T20:27:06.339Z,2.80
2023-05-24T20:29:32.965Z,3.08
2023-05-24T20:31:59.658Z,3.42
2023-05-24T20:34:26.363Z,2.55
2023-05-24T20:36:52.956Z,3.45
2023-05-24T20:39:19.391Z,3.10
2023-05-24T20:41:46.046Z,3.15
2023-05-24T20:44:12.592Z,2.70
2023-05-24T20:46:39.141Z,3.03
2023-05-24T20:49:05.819Z,3.25
2023-05-24T20:51:33.101Z,3.53
2023-05-24T20:53:59.793Z,3.33
2023-05-24T20:56:26.371Z,3.22
2023-05-24T20:58:54.210Z,2.85
2023-05-24T21:01:21.274Z,3.00
2023-05-24T21:03:47.869Z,3.35
2023-05-24T21:06:14.376Z,3.35
2023-05-24T21:08:41.020Z,3.60
2023-05-24T21:11:07.452Z,3.73
2023-05-24T21:13:34.424Z,3.17
2023-05-24T21:16:02.177Z,4.35
2023-05-24T21:18:28.651Z,3.40
2023-05-24T21:20:55.162Z,3.37
2023-05-24T21:23:21.631Z,4.30
2023-05-24T21:25:48.061Z,3.73
2023-05-24T21:28:14.615Z,3.42
2023-05-24T21:30:41.206Z,3.43
2023-05-24T21:33:08.263Z,3.20
2023-05-24T21:35:34.769Z,3.37
2023-05-24T21:38:01.505Z,2.80
2023-05-24T21:40:28.130Z,3.50
2023-05-24T21:42:54.560Z,2.77
2023-05-24T21:45:21.180Z,3.47
2023-05-24T21:47:47.699Z,3.20
2023-05-24T21:50:14.309Z,3.10
2023-05-24T21:52:40.908Z,3.00
2023-05-24T21:55:07.767Z,2.78
2023-05-24T21:57:34.212Z,3.03
2023-05-24T22:00:01.490Z,3.20
2023-05-24T22:02:30.302Z,3.47
2023-05-24T22:04:56.991Z,3.20
2023-05-24T22:07:23.478Z,3.53
2023-05-24T22:09:49.976Z,3.20
2023-05-24T22:12:16.667Z,3.13
2023-05-24T22:14:43.111Z,3.00
2023-05-24T22:17:09.717Z,3.07
2023-05-24T22:19:40.126Z,3.05
2023-05-24T22:22:07.970Z,2.97
2023-05-24T22:24:34.473Z,3.03
2023-05-24T22:27:01.404Z,2.77
2023-05-24T22:29:28.054Z,2.73
2023-05-24T22:31:54.548Z,3.13
2023-05-24T22:34:30.082Z,3.03
2023-05-24T22:36:57.730Z,3.27
2023-05-24T22:39:24.628Z,2.93
2023-05-24T22:41:51.757Z,3.50
2023-05-24T22:44:18.198Z,2.87
2023-05-24T22:46:45.072Z,3.10
2023-05-24T22:49:13.406Z,3.20
2023-05-24T22:51:44.371Z,3.50
2023-05-24T22:54:11.720Z,3.50
2023-05-24T22:56:38.978Z,3.60
2023-05-24T22:59:06.042Z,3.10
2023-05-24T23:01:33.702Z,3.20
2023-05-24T23:04:15.708Z,3.73
2023-05-24T23:06:46.081Z,3.40
2023-05-24T23:09:13.102Z,3.37
2023-05-24T23:11:39.876Z,4.03
2023-05-24T23:14:09.046Z,3.80
2023-05-24T23:16:45.736Z,3.07
2023-05-24T23:19:18.919Z,3.50
2023-05-24T23:21:46.165Z,3.00
2023-05-24T23:24:14.711Z,2.97
2023-05-24T23:26:42.242Z,3.13
2023-05-24T23:29:09.431Z,3.60
2023-05-24T23:31:38.287Z,3.47
2023-05-24T23:34:05.939Z,3.93
2023-05-24T23:36:32.731Z,3.37
2023-05-24T23:38:59.637Z,3.50
2023-05-24T23:41:26.660Z,3.50
2023-05-24T23:43:53.261Z,3.40
2023-05-24T23:46:20.186Z,2.93
2023-05-24T23:48:46.808Z,3.10
2023-05-24T23:51:13.781Z,3.47
2023-05-24T23:53:40.745Z,3.60
2023-05-24T23:56:08.462Z,4.00
2023-05-24T23:58:35.946Z,3.57
